Time;durP1;ratioP1;P1;durP2;ratioP2;P2;SDS_P1;SDS_P2;PMS_P1;PMS_P2;Temp;Humidity;BMP_temperature;BMP_pressure;BME280_temperature;BME280_humidity;BME280_pressure;Samples;Min_cycle;Max_cycle;Signal;HPM_P1;HPM_P2
2022/04/10 00:00:28;;;;;;;9.02;4.25;;;4.20;99.90;;;;;;5112525;28;20291;-79
2022/04/10 00:02:55;;;;;;;7.75;3.58;;;4.20;99.90;;;;;;5105975;28;20225;-80
2022/04/10 00:05:23;;;;;;;7.95;2.65;;;4.20;99.90;;;;;;5117067;28;20223;-79
2022/04/10 00:07:50;;;;;;;5.00;2.50;;;4.10;99.90;;;;;;5107844;28;20221;-80
2022/04/10 00:10:17;;;;;;;4.47;2.25;;;4.10;99.90;;;;;;5109577;28;20273;-80
2022/04/10 00:12:44;;;;;;;5.70;2.75;;;4.10;99.90;;;;;;5112806;28;20221;-79
2022/04/10 00:15:12;;;;;;;8.70;3.72;;;4.10;99.90;;;;;;5113787;28;20261;-79
2022/04/10 00:17:39;;;;;;;4.95;3.47;;;4.10;99.90;;;;;;5109398;28;20195;-79
2022/04/10 00:20:07;;;;;;;8.57;2.15;;;4.10;99.90;;;;;;5103624;28;20206;-80
2022/04/10 00:22:42;;;;;;;5.45;2.97;;;4.10;99.90;;;;;;5120848;28;20789;-79
2022/04/10 00:25:09;;;;;;;3.40;2.15;;;4.20;99.90;;;;;;5115245;28;20265;-81
2022/04/10 00:27:37;;;;;;;5.82;2.80;;;4.10;99.90;;;;;;5115241;28;20282;-79
2022/04/10 00:30:05;;;;;;;4.78;2.03;;;4.20;99.90;;;;;;5112719;28;20289;-80
2022/04/10 00:32:32;;;;;;;8.95;2.30;;;4.30;99.90;;;;;;5118426;28;20225;-80
2022/04/10 00:34:59;;;;;;;9.05;2.70;;;4.30;99.90;;;;;;5122454;28;20297;-79
2022/04/10 00:37:26;;;;;;;7.57;2.67;;;4.30;99.90;;;;;;5117158;28;20296;-78
2022/04/10 00:39:55;;;;;;;13.05;3.47;;;4.30;99.90;;;;;;5109875;28;20249;-79
2022/04/10 00:42:22;;;;;;;7.78;2.53;;;4.40;99.90;;;;;;5114867;28;20253;-78
2022/04/10 00:44:49;;;;;;;8.18;3.65;;;4.50;99.90;;;;;;5127212;28;20764;-79
2022/04/10 00:47:16;;;;;;;13.63;3.40;;;4.30;99.90;;;;;;5113903;28;20285;-78
2022/04/10 00:49:43;;;;;;;8.75;3.05;;;4.30;99.90;;;;;;5120675;28;20202;-78
2022/04/10 00:52:10;;;;;;;8.52;2.45;;;4.30;99.90;;;;;;5124551;28;20209;-79
2022/04/10 00:54:37;;;;;;;3.65;2.58;;;4.30;99.90;;;;;;5118730;28;20229;-79
2022/04/10 00:57:07;;;;;;;10.30;3.22;;;4.10;99.90;;;;;;5117949;28;20265;-79
2022/04/10 00:59:34;;;;;;;9.15;2.90;;;4.20;99.90;;;;;;5112448;28;20290;-78
2022/04/10 01:02:01;;;;;;;6.00;2.53;;;4.20;99.90;;;;;;5113068;28;20240;-80
2022/04/10 01:04:28;;;;;;;9.55;4.65;;;4.40;99.90;;;;;;5111654;28;20222;-80
2022/04/10 01:06:57;;;;;;;7.35;3.88;;;4.20;99.90;;;;;;5115133;28;20209;-79
2022/04/10 01:09:25;;;;;;;3.80;2.80;;;4.30;99.90;;;;;;5106827;28;20198;-79
2022/04/10 01:11:53;;;;;;;6.00;2.65;;;4.40;99.90;;;;;;5112084;28;20301;-79
2022/04/10 01:14:22;;;;;;;11.55;2.90;;;4.30;99.90;;;;;;5107473;28;20680;-79
2022/04/10 01:16:49;;;;;;;7.18;2.97;;;4.40;99.90;;;;;;5110448;28;20198;-79
2022/04/10 01:19:18;;;;;;;8.40;2.58;;;4.40;99.90;;;;;;5105588;28;20212;-78
2022/04/10 01:21:46;;;;;;;8.20;2.58;;;4.30;99.90;;;;;;5117284;28;20208;-80
2022/04/10 01:24:15;;;;;;;6.65;3.15;;;4.50;99.90;;;;;;5111787;28;20305;-80
2022/04/10 01:26:43;;;;;;;10.40;3.28;;;4.40;99.90;;;;;;5116865;28;20292;-79
2022/04/10 01:29:12;;;;;;;7.30;2.20;;;4.20;99.90;;;;;;5121060;28;20213;-79
2022/04/10 01:31:40;;;;;;;5.75;3.45;;;4.20;99.90;;;;;;5119948;28;20213;-79
2022/04/10 01:34:10;;;;;;;10.98;2.35;;;4.20;99.90;;;;;;5110555;28;20317;-79
2022/04/10 01:36:38;;;;;;;10.05;2.47;;;4.20;99.90;;;;;;5113476;28;20207;-79
2022/04/10 01:39:07;;;;;;;8.45;3.05;;;4.20;99.90;;;;;;5105515;28;20622;-79
2022/04/10 01:41:35;;;;;;;8.88;2.90;;;4.10;99.90;;;;;;5115160;28;20244;-79
2022/04/10 01:44:03;;;;;;;8.48;2.95;;;4.20;99.90;;;;;;5111966;28;20336;-77
2022/04/10 01:46:32;;;;;;;8.63;3.33;;;4.20;99.90;;;;;;5106511;28;20212;-79
2022/04/10 01:48:59;;;;;;;6.28;3.00;;;4.10;99.90;;;;;;5107634;28;20221;-79
2022/04/10 01:51:27;;;;;;;12.27;3.20;;;4.20;99.90;;;;;;5106186;28;20206;-78
2022/04/10 01:53:54;;;;;;;6.93;3.15;;;4.10;99.90;;;;;;5119138;28;20217;-78
2022/04/10 01:56:22;;;;;;;8.32;3.72;;;4.30;99.90;;;;;;5105417;28;20196;-79
2022/04/10 01:58:52;;;;;;;3.53;2.97;;;4.30;99.90;;;;;;5117163;28;20212;-79
2022/04/10 02:01:20;;;;;;;9.18;3.15;;;4.30;99.90;;;;;;5110814;28;20223;-78
2022/04/10 02:03:47;;;;;;;9.68;4.78;;;4.50;99.90;;;;;;5104711;28;20356;-80
2022/04/10 02:06:15;;;;;;;8.52;5.95;;;4.40;99.90;;;;;;5110358;28;20209;-78
2022/04/10 02:08:43;;;;;;;6.47;2.72;;;4.30;99.90;;;;;;5115648;28;20248;-78
2022/04/10 02:11:11;;;;;;;13.05;4.07;;;4.30;99.90;;;;;;5116449;28;20237;-78
2022/04/10 02:13:38;;;;;;;6.45;3.15;;;4.30;99.90;;;;;;5114022;28;20922;-78
2022/04/10 02:16:08;;;;;;;9.68;3.30;;;4.30;99.90;;;;;;5103427;28;20224;-80
2022/04/10 02:18:35;;;;;;;10.20;3.42;;;4.30;99.90;;;;;;5110942;28;20605;-80
2022/04/10 02:21:02;;;;;;;6.72;3.30;;;4.30;99.90;;;;;;5112467;28;20309;-79
2022/04/10 02:23:29;;;;;;;10.15;3.67;;;4.20;99.90;;;;;;5118110;28;20218;-79
2022/04/10 02:25:56;;;;;;;12.98;3.53;;;4.20;99.90;;;;;;5117392;28;20230;-78
2022/04/10 02:28:23;;;;;;;11.25;4.20;;;4.10;99.90;;;;;;5134385;28;20237;-78
2022/04/10 02:30:50;;;;;;;10.60;3.20;;;4.10;99.90;;;;;;5127573;28;20265;-80
2022/04/10 02:33:19;;;;;;;9.23;3.35;;;4.10;99.90;;;;;;5137907;28;20229;-80
2022/04/10 02:35:46;;;;;;;4.97;3.08;;;4.00;99.90;;;;;;5121431;28;20243;-79
2022/04/10 02:38:16;;;;;;;7.93;2.63;;;3.90;99.90;;;;;;5136218;28;20224;-79
2022/04/10 02:40:44;;;;;;;11.48;5.40;;;3.90;99.90;;;;;;5129009;28;20189;-78
2022/04/10 02:43:13;;;;;;;12.70;5.13;;;3.90;99.90;;;;;;5133068;28;20234;-79
2022/04/10 02:45:40;;;;;;;13.70;4.47;;;3.90;99.90;;;;;;5116328;28;20225;-80
2022/04/10 02:48:08;;;;;;;13.98;6.05;;;3.80;99.90;;;;;;5105720;28;20226;-79
2022/04/10 02:50:36;;;;;;;10.65;4.20;;;3.90;99.90;;;;;;5104731;28;20308;-79
2022/04/10 02:53:03;;;;;;;8.30;4.05;;;3.90;99.90;;;;;;5123155;28;20231;-79
2022/04/10 02:55:30;;;;;;;8.57;3.47;;;3.90;99.90;;;;;;5125440;28;20197;-79
2022/04/10 02:57:56;;;;;;;9.10;3.60;;;3.90;99.90;;;;;;5105332;28;20578;-79
2022/04/10 03:00:23;;;;;;;10.02;3.20;;;4.00;99.90;;;;;;5107546;28;20269;-78
2022/04/10 03:02:50;;;;;;;13.02;5.40;;;4.00;99.90;;;;;;5118336;28;20220;-80
2022/04/10 03:05:17;;;;;;;7.40;3.22;;;4.00;99.90;;;;;;5106972;28;20289;-78
2022/04/10 03:07:45;;;;;;;6.53;3.17;;;4.00;99.90;;;;;;5118401;28;20231;-79
2022/04/10 03:10:12;;;;;;;9.23;3.15;;;4.10;99.90;;;;;;5112377;28;20572;-80
2022/04/10 03:12:39;;;;;;;8.80;3.92;;;4.20;99.90;;;;;;5125159;28;20221;-80
2022/04/10 03:15:07;;;;;;;9.65;3.53;;;4.10;99.90;;;;;;5113468;28;20732;-80
2022/04/10 03:17:34;;;;;;;8.77;3.85;;;4.10;99.90;;;;;;5118933;28;20294;-79
2022/04/10 03:20:01;;;;;;;10.52;4.50;;;4.00;99.90;;;;;;5114729;28;20257;-79
2022/04/10 03:22:27;;;;;;;15.55;5.65;;;4.10;99.90;;;;;;5119797;28;20229;-78
2022/04/10 03:24:56;;;;;;;10.35;4.93;;;4.00;99.90;;;;;;5099498;28;20654;-80
2022/04/10 03:27:22;;;;;;;6.90;3.78;;;4.00;99.90;;;;;;5107488;28;20204;-79
2022/04/10 03:29:49;;;;;;;10.75;4.25;;;3.90;99.90;;;;;;5111447;28;20292;-80
2022/04/10 03:32:16;;;;;;;10.07;4.35;;;3.90;99.90;;;;;;5116613;28;20325;-79
2022/04/10 03:34:43;;;;;;;8.70;3.92;;;3.80;99.90;;;;;;5120311;28;20908;-79
2022/04/10 03:37:10;;;;;;;16.85;4.60;;;3.80;99.90;;;;;;5115096;28;20224;-79
2022/04/10 03:39:37;;;;;;;11.50;4.07;;;3.70;99.90;;;;;;5116768;28;20292;-79
2022/04/10 03:42:05;;;;;;;11.00;4.15;;;3.70;99.90;;;;;;5120942;28;20288;-79
2022/04/10 03:44:32;;;;;;;16.77;4.45;;;3.60;99.90;;;;;;5110373;28;20279;-79
2022/04/10 03:46:59;;;;;;;10.70;3.75;;;3.60;99.90;;;;;;5113977;28;20208;-80
2022/04/10 03:49:26;;;;;;;16.92;4.65;;;3.50;99.90;;;;;;5108015;28;20881;-78
2022/04/10 03:51:53;;;;;;;14.13;4.70;;;3.50;99.90;;;;;;5115381;28;20289;-79
2022/04/10 03:54:19;;;;;;;8.18;4.43;;;3.50;99.90;;;;;;5114812;28;20218;-78
2022/04/10 03:56:46;;;;;;;9.98;3.92;;;3.40;99.90;;;;;;5118621;28;20688;-79
2022/04/10 03:59:14;;;;;;;12.02;5.13;;;3.40;99.90;;;;;;5116415;28;20288;-79
2022/04/10 04:01:41;;;;;;;9.85;4.32;;;3.40;99.90;;;;;;5121075;28;20647;-79
2022/04/10 04:04:08;;;;;;;18.42;5.63;;;3.40;99.90;;;;;;5125633;28;20245;-79
2022/04/10 04:06:35;;;;;;;12.93;4.45;;;3.40;99.90;;;;;;5124663;28;20257;-79
2022/04/10 04:09:02;;;;;;;7.47;3.60;;;3.50;99.90;;;;;;5123018;28;20739;-79
2022/04/10 04:11:28;;;;;;;17.02;4.60;;;3.30;99.90;;;;;;5126010;28;20236;-80
2022/04/10 04:13:56;;;;;;;15.13;4.10;;;3.30;99.90;;;;;;5127112;28;20285;-79
2022/04/10 04:16:24;;;;;;;12.52;4.50;;;3.40;99.90;;;;;;5121197;28;20197;-78
2022/04/10 04:18:51;;;;;;;8.77;3.92;;;3.30;99.90;;;;;;5118360;28;20232;-79
2022/04/10 04:21:18;;;;;;;10.15;4.03;;;3.30;99.90;;;;;;5127459;28;20243;-80
2022/04/10 04:23:44;;;;;;;9.13;3.70;;;3.40;99.90;;;;;;5128884;28;20235;-78
2022/04/10 04:26:11;;;;;;;5.40;3.65;;;3.30;99.90;;;;;;5117044;28;20294;-79
2022/04/10 04:28:38;;;;;;;12.68;3.15;;;3.30;99.90;;;;;;5128615;28;20221;-77
2022/04/10 04:31:05;;;;;;;14.98;4.13;;;3.40;99.90;;;;;;5119835;28;20220;-78
2022/04/10 04:33:34;;;;;;;5.70;3.40;;;3.40;99.90;;;;;;5122435;28;20218;-78
2022/04/10 04:36:01;;;;;;;9.18;3.88;;;3.40;99.90;;;;;;5120352;28;20199;-79
2022/04/10 04:38:28;;;;;;;17.73;4.90;;;3.40;99.90;;;;;;5123431;28;20258;-79
2022/04/10 04:40:54;;;;;;;8.48;3.92;;;3.50;99.90;;;;;;5125888;28;20194;-79
2022/04/10 04:43:21;;;;;;;15.95;4.28;;;3.50;99.90;;;;;;5120665;28;20221;-80
2022/04/10 04:45:48;;;;;;;8.95;4.50;;;3.50;99.90;;;;;;5123113;28;20205;-79
2022/04/10 04:48:15;;;;;;;6.97;3.40;;;3.60;99.90;;;;;;5112346;28;20513;-79
2022/04/10 04:50:44;;;;;;;16.58;3.45;;;3.60;99.90;;;;;;5111806;28;20281;-78
2022/04/10 04:53:11;;;;;;;8.20;3.33;;;3.60;99.90;;;;;;5117757;28;20229;-80
2022/04/10 04:55:38;;;;;;;12.32;4.57;;;3.70;99.90;;;;;;5119972;28;20299;-79
2022/04/10 04:58:05;;;;;;;10.30;4.28;;;3.70;99.90;;;;;;5114814;28;20236;-79
2022/04/10 05:00:32;;;;;;;8.75;3.60;;;3.70;99.90;;;;;;5117505;28;20264;-79
2022/04/10 05:02:58;;;;;;;12.52;3.78;;;3.70;99.90;;;;;;5119493;28;20657;-79
2022/04/10 05:05:26;;;;;;;11.57;4.45;;;3.80;99.90;;;;;;5116203;28;20201;-79
2022/04/10 05:07:54;;;;;;;15.32;4.80;;;3.80;99.90;;;;;;5112285;28;20284;-79
2022/04/10 05:10:21;;;;;;;12.38;2.97;;;4.00;99.90;;;;;;5105976;28;20313;-80
2022/04/10 05:12:48;;;;;;;14.48;3.70;;;4.00;99.90;;;;;;5111748;28;20228;-80
2022/04/10 05:15:15;;;;;;;10.80;2.90;;;4.10;99.90;;;;;;5111259;28;20201;-80
2022/04/10 05:17:42;;;;;;;4.60;2.95;;;4.10;99.90;;;;;;5102546;28;20209;-80
2022/04/10 05:20:10;;;;;;;12.65;2.85;;;4.20;99.90;;;;;;5116945;28;20262;-80
2022/04/10 05:22:36;;;;;;;11.63;6.82;;;4.30;99.90;;;;;;5108289;28;20217;-80
2022/04/10 05:25:05;;;;;;;11.38;2.60;;;4.40;99.90;;;;;;5115344;28;20295;-78
2022/04/10 05:27:32;;;;;;;7.00;2.55;;;4.50;99.90;;;;;;5116668;28;20265;-78
2022/04/10 05:29:59;;;;;;;8.90;3.67;;;4.60;99.90;;;;;;5113950;28;20757;-78
2022/04/10 05:32:26;;;;;;;9.93;3.97;;;4.70;99.90;;;;;;5132827;28;20246;-78
2022/04/10 05:34:53;;;;;;;6.05;2.95;;;4.70;99.90;;;;;;5125879;28;20201;-78
2022/04/10 05:37:20;;;;;;;11.52;3.95;;;4.90;99.90;;;;;;5132591;28;20194;-79
2022/04/10 05:39:46;;;;;;;20.73;3.50;;;5.30;99.90;;;;;;5117348;28;20198;-78
2022/04/10 05:42:14;;;;;;;6.18;2.45;;;5.90;99.90;;;;;;5125981;28;20206;-79
2022/04/10 05:44:41;;;;;;;5.65;1.88;;;6.30;99.90;;;;;;5127976;28;20232;-78
2022/04/10 05:47:08;;;;;;;8.48;2.90;;;6.60;99.90;;;;;;5116550;28;20305;-79
2022/04/10 05:49:35;;;;;;;11.65;3.78;;;7.20;99.90;;;;;;5119079;28;20314;-78
2022/04/10 05:52:02;;;;;;;8.38;2.28;;;7.60;99.90;;;;;;5102279;28;20245;-81
2022/04/10 05:54:29;;;;;;;13.05;3.10;;;7.80;99.90;;;;;;5110275;28;20311;-80
2022/04/10 05:56:56;;;;;;;11.85;3.05;;;7.50;99.90;;;;;;5119091;28;20213;-79
2022/04/10 05:59:24;;;;;;;6.13;2.00;;;7.90;99.90;;;;;;5112228;28;20207;-80
2022/04/10 06:01:53;;;;;;;5.63;2.30;;;8.60;99.90;;;;;;5106785;28;20202;-80
2022/04/10 06:04:20;;;;;;;6.88;2.15;;;8.80;99.90;;;;;;5112854;28;20221;-80
2022/04/10 06:06:46;;;;;;;6.68;1.77;;;9.20;99.90;;;;;;5106328;28;20237;-80
2022/04/10 06:09:14;;;;;;;4.85;1.92;;;9.40;99.90;;;;;;5112282;28;20221;-78
2022/04/10 06:11:40;;;;;;;7.65;2.75;;;10.00;99.90;;;;;;5100035;28;20257;-79
2022/04/10 06:14:07;;;;;;;5.38;2.03;;;10.80;99.90;;;;;;5109251;28;20228;-79
2022/04/10 06:16:35;;;;;;;8.18;2.60;;;11.10;99.90;;;;;;5110691;28;20536;-79
2022/04/10 06:19:02;;;;;;;9.32;2.17;;;11.30;99.90;;;;;;5109125;28;20200;-79
2022/04/10 06:21:29;;;;;;;5.38;1.98;;;11.60;98.40;;;;;;5107714;28;20268;-78
2022/04/10 06:23:56;;;;;;;5.03;1.65;;;11.70;99.00;;;;;;5119461;28;20222;-79
2022/04/10 06:26:23;;;;;;;6.63;2.35;;;12.40;97.10;;;;;;5112458;28;20201;-80
2022/04/10 06:28:50;;;;;;;7.47;2.80;;;12.60;95.70;;;;;;5111205;28;20225;-79
2022/04/10 06:31:17;;;;;;;5.70;3.28;;;13.20;94.40;;;;;;5111607;28;20198;-79
2022/04/10 06:33:45;;;;;;;8.93;2.50;;;12.40;92.80;;;;;;5112928;28;20226;-79
2022/04/10 06:36:12;;;;;;;5.35;2.55;;;12.60;94.50;;;;;;5118597;28;20197;-79
2022/04/10 06:38:38;;;;;;;4.88;2.08;;;12.80;94.30;;;;;;5110103;28;20297;-80
2022/04/10 06:41:05;;;;;;;7.63;1.83;;;13.20;93.80;;;;;;5113346;28;20705;-79
2022/04/10 06:43:32;;;;;;;4.00;1.88;;;13.60;92.90;;;;;;5111048;28;20270;-78
2022/04/10 06:45:59;;;;;;;4.25;1.30;;;14.00;92.30;;;;;;5112696;28;20276;-79
2022/04/10 06:48:26;;;;;;;3.95;1.80;;;14.60;91.50;;;;;;5114547;28;20221;-78
2022/04/10 06:50:54;;;;;;;4.18;1.73;;;14.50;90.50;;;;;;5113216;28;20221;-80
2022/04/10 06:53:21;;;;;;;4.28;1.67;;;13.80;90.90;;;;;;5111805;28;20232;-79
2022/04/10 06:55:47;;;;;;;5.15;2.22;;;14.40;91.20;;;;;;5109862;28;20631;-79
2022/04/10 06:58:16;;;;;;;5.18;2.03;;;14.70;90.50;;;;;;5110460;28;20206;-79
2022/04/10 07:00:43;;;;;;;4.05;1.98;;;14.30;90.70;;;;;;5114977;28;20193;-79
2022/04/10 07:03:10;;;;;;;4.25;1.63;;;14.50;91.60;;;;;;5116351;28;20448;-79
2022/04/10 07:05:37;;;;;;;10.32;2.35;;;14.50;91.70;;;;;;5107996;28;20294;-78
2022/04/10 07:08:06;;;;;;;7.80;2.15;;;14.70;90.30;;;;;;5111821;28;20203;-79
2022/04/10 07:10:34;;;;;;;5.68;2.60;;;14.30;91.40;;;;;;5114768;28;20288;-79
2022/04/10 07:13:01;;;;;;;7.53;3.20;;;14.00;90.10;;;;;;5091326;28;20234;-80
2022/04/10 07:15:28;;;;;;;5.03;2.58;;;14.40;90.70;;;;;;5115855;28;20201;-79
2022/04/10 07:17:56;;;;;;;9.35;2.30;;;14.20;90.20;;;;;;5117572;28;20232;-80
2022/04/10 07:20:23;;;;;;;5.95;1.98;;;14.10;90.40;;;;;;5117807;28;20194;-80
2022/04/10 07:25:36;;;;;;;3.83;1.75;;;15.10;88.00;;;;;;5108531;28;20277;-83
2022/04/10 07:28:14;;;;;;;6.40;2.20;;;15.10;86.80;;;;;;5113428;28;20744;-82
2022/04/10 07:30:41;;;;;;;5.00;1.85;;;15.60;85.50;;;;;;5103245;28;20225;-80
2022/04/10 07:33:08;;;;;;;6.10;1.58;;;15.60;84.30;;;;;;5109550;28;20227;-79
2022/04/10 07:35:35;;;;;;;4.13;1.70;;;15.70;83.60;;;;;;5111777;28;20201;-79
2022/04/10 07:38:03;;;;;;;5.03;2.20;;;15.60;83.20;;;;;;5111702;28;20201;-77
2022/04/10 07:40:29;;;;;;;6.28;1.55;;;15.80;83.60;;;;;;5112063;28;20203;-77
2022/04/10 07:42:59;;;;;;;4.95;1.70;;;15.50;85.90;;;;;;5114570;28;20291;-79
2022/04/10 07:48:07;;;;;;;5.70;2.25;;;14.70;85.60;;;;;;5082470;28;20235;-80
2022/04/10 07:50:34;;;;;;;4.00;2.15;;;14.70;85.60;;;;;;5113518;28;20600;-80
2022/04/10 07:53:01;;;;;;;5.03;2.10;;;14.30;87.40;;;;;;5112909;28;20308;-80
2022/04/10 07:55:27;;;;;;;8.52;2.20;;;14.30;88.40;;;;;;5109571;28;20204;-78
2022/04/10 07:57:54;;;;;;;8.50;1.70;;;14.90;87.00;;;;;;5110100;28;20209;-77
2022/04/10 08:00:24;;;;;;;6.70;2.70;;;15.00;85.30;;;;;;5088442;28;20190;-77
2022/04/10 08:02:52;;;;;;;3.67;2.08;;;15.00;84.40;;;;;;5114203;28;20250;-79
2022/04/10 08:05:21;;;;;;;6.95;2.05;;;14.90;85.00;;;;;;5088632;28;20222;-82
2022/04/10 08:07:48;;;;;;;6.53;2.00;;;15.40;85.00;;;;;;5110521;28;20549;-79
2022/04/10 08:10:15;;;;;;;4.18;1.70;;;15.10;83.50;;;;;;5113934;28;20226;-81
2022/04/10 08:12:43;;;;;;;3.97;1.80;;;15.30;83.30;;;;;;5112178;28;20645;-82
2022/04/10 08:15:12;;;;;;;9.38;1.73;;;15.40;83.10;;;;;;5115078;28;20232;-83
2022/04/10 08:17:41;;;;;;;8.77;2.85;;;15.10;82.50;;;;;;5101554;28;20688;-81
2022/04/10 08:20:11;;;;;;;6.72;2.30;;;14.70;84.20;;;;;;5104790;28;20262;-84
2022/04/10 08:22:39;;;;;;;6.38;1.67;;;14.00;85.90;;;;;;5110687;28;20613;-80
2022/04/10 08:25:07;;;;;;;5.97;1.55;;;13.20;88.80;;;;;;5091402;28;20213;-83
2022/04/10 08:27:36;;;;;;;6.78;1.88;;;12.70;90.40;;;;;;5110383;28;20199;-83
2022/04/10 08:30:05;;;;;;;8.05;1.90;;;12.60;91.50;;;;;;5107726;28;20255;-84
2022/04/10 08:32:36;;;;;;;9.95;2.70;;;13.20;90.90;;;;;;5107733;28;20629;-83
2022/04/10 08:35:06;;;;;;;5.82;2.05;;;13.20;91.00;;;;;;5112940;28;20514;-84
2022/04/10 08:37:33;;;;;;;8.10;2.10;;;12.90;91.30;;;;;;5117218;28;20309;-81
2022/04/10 08:40:00;;;;;;;6.20;2.25;;;12.70;91.70;;;;;;5123432;28;20242;-83
2022/04/10 08:42:30;;;;;;;4.28;1.75;;;12.40;91.50;;;;;;5109807;28;20207;-85
2022/04/10 08:44:59;;;;;;;5.10;2.10;;;11.30;93.60;;;;;;5113515;28;20205;-81
2022/04/10 08:47:26;;;;;;;9.57;1.95;;;10.60;94.80;;;;;;5110033;28;20221;-81
2022/04/10 08:49:55;;;;;;;6.32;1.90;;;10.80;96.60;;;;;;5105278;28;20259;-81
2022/04/10 08:52:23;;;;;;;6.40;3.47;;;11.90;96.20;;;;;;5103280;28;20276;-81
2022/04/10 08:54:51;;;;;;;7.35;2.20;;;11.60;94.00;;;;;;5104382;28;20258;-82
2022/04/10 08:57:21;;;;;;;6.00;1.50;;;11.20;94.30;;;;;;5117166;28;20251;-83
2022/04/10 09:03:23;;;;;;;8.90;2.00;;;10.60;93.90;;;;;;5066747;28;20289;-78
2022/04/10 09:06:02;;;;;;;5.80;2.42;;;9.80;99.20;;;;;;5065214;28;20207;-79
2022/04/10 09:08:31;;;;;;;6.45;2.28;;;9.30;99.90;;;;;;5078593;28;20280;-78
2022/04/10 09:11:00;;;;;;;5.65;2.70;;;9.20;99.90;;;;;;5115458;28;20293;-81
2022/04/10 09:13:30;;;;;;;6.85;2.65;;;9.20;99.90;;;;;;5115500;28;20225;-81
2022/04/10 09:16:13;;;;;;;6.60;1.75;;;10.80;99.90;;;;;;5094403;28;20248;-81
2022/04/10 09:18:51;;;;;;;5.80;2.83;;;11.70;96.60;;;;;;5116071;28;20210;-83
2022/04/10 09:21:20;;;;;;;3.55;1.73;;;11.80;95.00;;;;;;5117235;28;20194;-81
2022/04/10 09:23:56;;;;;;;3.35;1.63;;;11.80;94.80;;;;;;5105160;28;20821;-79
2022/04/10 09:26:23;;;;;;;6.38;1.92;;;13.20;92.70;;;;;;5092242;28;20229;-78
2022/04/10 09:28:51;;;;;;;3.65;2.00;;;14.40;90.30;;;;;;5099097;28;20234;-79
2022/04/10 09:31:35;;;;;;;5.03;2.60;;;14.90;86.00;;;;;;5111260;28;20249;-80
2022/04/10 09:34:04;;;;;;;6.22;2.25;;;15.50;83.40;;;;;;5091150;28;20235;-79
2022/04/10 09:36:36;;;;;;;8.13;2.60;;;15.80;80.70;;;;;;5099812;28;20202;-79
2022/04/10 09:39:07;;;;;;;8.10;2.55;;;15.50;79.70;;;;;;5099376;28;20204;-78
2022/04/10 09:41:34;;;;;;;3.50;1.90;;;15.40;81.10;;;;;;5097108;28;20211;-79
2022/04/10 09:44:11;;;;;;;9.48;2.33;;;14.90;79.50;;;;;;5113792;28;20276;-80
2022/04/10 09:46:38;;;;;;;8.00;2.67;;;14.90;79.70;;;;;;5122385;28;20193;-80
2022/04/10 09:49:05;;;;;;;8.23;2.42;;;14.10;82.40;;;;;;5116399;28;20636;-80
2022/04/10 09:51:32;;;;;;;9.20;2.38;;;13.30;81.70;;;;;;5108946;28;20216;-81
2022/04/10 09:54:06;;;;;;;6.85;2.40;;;12.50;85.50;;;;;;5116292;28;20225;-85
2022/04/10 09:56:38;;;;;;;8.55;2.05;;;12.10;86.20;;;;;;5111903;28;20209;-81
2022/04/10 09:59:07;;;;;;;7.82;2.75;;;11.50;88.20;;;;;;5116781;28;20182;-82
2022/04/10 10:01:34;;;;;;;9.63;2.40;;;11.10;90.60;;;;;;5109962;28;20460;-82
2022/04/10 10:04:03;;;;;;;6.28;1.98;;;10.90;91.80;;;;;;5108199;28;20503;-80
2022/04/10 10:06:35;;;;;;;3.78;1.73;;;11.30;93.30;;;;;;5109945;28;20209;-79
2022/04/10 10:09:02;;;;;;;5.00;3.03;;;11.60;93.40;;;;;;5106954;28;20191;-79
2022/04/10 10:11:31;;;;;;;5.97;2.42;;;12.70;92.10;;;;;;5111618;28;20237;-78
2022/04/10 10:13:58;;;;;;;5.55;2.85;;;13.00;91.20;;;;;;5112067;28;20229;-77
2022/04/10 10:16:25;;;;;;;8.45;1.83;;;13.80;90.20;;;;;;5111606;28;20301;-77
2022/04/10 10:18:52;;;;;;;6.93;2.00;;;14.00;86.10;;;;;;5099448;28;20210;-77
2022/04/10 10:21:19;;;;;;;10.90;2.25;;;14.60;83.90;;;;;;5091748;28;20222;-79
2022/04/10 10:23:51;;;;;;;5.72;1.85;;;15.00;82.70;;;;;;5092267;28;20328;-79
2022/04/10 10:26:39;;;;;;;6.28;2.65;;;15.40;81.40;;;;;;5094268;28;20559;-78
2022/04/10 10:29:32;;;;;;;5.38;2.40;;;15.40;78.80;;;;;;5097969;28;20195;-83
2022/04/10 10:32:12;;;;;;;5.78;2.92;;;15.00;77.90;;;;;;5100126;28;20279;-81
2022/04/10 10:34:41;;;;;;;8.02;2.78;;;14.50;78.70;;;;;;5092139;28;20232;-79
2022/04/10 10:37:08;;;;;;;10.55;3.13;;;13.90;81.30;;;;;;5094508;28;20217;-79
2022/04/10 10:39:46;;;;;;;6.40;2.35;;;13.20;84.00;;;;;;5094932;28;20287;-78
2022/04/10 10:42:14;;;;;;;4.60;2.78;;;12.00;90.10;;;;;;5090561;28;20289;-80
2022/04/10 10:44:52;;;;;;;4.35;2.78;;;10.60;95.70;;;;;;5092738;28;20696;-79
2022/04/10 10:47:25;;;;;;;7.43;2.13;;;9.80;99.90;;;;;;5103712;28;20698;-80
2022/04/10 10:49:53;;;;;;;6.15;2.97;;;8.90;99.90;;;;;;5098620;28;20214;-81
2022/04/10 10:52:23;;;;;;;5.60;1.92;;;8.70;99.90;;;;;;5100210;28;20232;-82
2022/04/10 10:54:55;;;;;;;3.45;1.70;;;8.50;99.90;;;;;;5097030;28;20233;-79
2022/04/10 10:57:32;;;;;;;7.32;2.50;;;8.50;99.90;;;;;;5098036;28;20639;-80
2022/04/10 11:00:15;;;;;;;4.38;2.88;;;9.20;99.90;;;;;;5099255;28;20220;-80
2022/04/10 11:02:49;;;;;;;7.60;4.20;;;9.90;99.90;;;;;;5094621;28;20706;-80
2022/04/10 11:05:30;;;;;;;5.40;2.13;;;10.40;99.90;;;;;;5099278;28;20228;-79
2022/04/10 11:07:58;;;;;;;10.68;2.95;;;10.80;99.90;;;;;;5097176;28;20633;-80
2022/04/10 11:10:28;;;;;;;9.50;2.65;;;10.90;99.90;;;;;;5100320;28;20218;-80
2022/04/10 11:13:02;;;;;;;6.25;2.45;;;11.10;99.90;;;;;;5097166;28;20241;-83
2022/04/10 11:15:34;;;;;;;2.10;1.10;;;11.30;99.90;;;;;;5098714;28;20262;-78
2022/04/10 11:18:31;;;;;;;7.88;2.05;;;11.40;99.90;;;;;;5096880;28;20233;-79
2022/04/10 11:21:01;;;;;;;5.18;2.00;;;11.50;99.10;;;;;;5097617;28;20214;-78
2022/04/10 11:23:34;;;;;;;5.90;2.35;;;11.30;98.70;;;;;;5098783;28;20222;-81
2022/04/10 11:26:05;;;;;;;11.63;2.60;;;11.40;99.20;;;;;;5100344;28;20206;-80
2022/04/10 11:28:53;;;;;;;11.30;2.40;;;11.80;99.50;;;;;;5099695;28;20563;-79
2022/04/10 11:31:34;;;;;;;7.18;1.80;;;11.50;97.70;;;;;;5098852;28;20270;-79
2022/04/10 11:34:15;;;;;;;10.13;1.63;;;10.20;99.90;;;;;;5098910;28;20453;-80
2022/04/10 11:36:55;;;;;;;5.38;1.60;;;9.60;99.90;;;;;;5099578;28;20210;-79
2022/04/10 11:39:25;;;;;;;13.38;2.28;;;9.30;99.90;;;;;;5098608;28;20217;-78
2022/04/10 11:41:54;;;;;;;7.80;1.50;;;9.20;99.90;;;;;;5097331;28;20217;-81
2022/04/10 11:44:26;;;;;;;5.53;1.67;;;9.40;99.90;;;;;;5102628;28;20308;-82
2022/04/10 11:46:53;;;;;;;4.65;2.30;;;9.90;99.90;;;;;;5098090;28;20578;-83
2022/04/10 11:49:21;;;;;;;9.82;2.45;;;10.00;99.90;;;;;;5099509;28;20198;-81
2022/04/10 11:51:52;;;;;;;7.75;1.83;;;10.30;99.90;;;;;;5103864;28;20242;-79
2022/04/10 11:54:28;;;;;;;4.78;2.20;;;10.60;97.60;;;;;;5099837;28;20240;-80
2022/04/10 11:56:55;;;;;;;6.55;2.00;;;10.50;96.10;;;;;;5095775;28;20209;-80
2022/04/10 11:59:24;;;;;;;4.72;1.83;;;10.50;96.30;;;;;;5098103;28;20661;-81
2022/04/10 12:01:52;;;;;;;12.27;2.25;;;10.80;96.90;;;;;;5096611;28;20273;-79
2022/04/10 12:04:20;;;;;;;6.40;2.38;;;10.90;95.10;;;;;;5107489;28;20221;-79
2022/04/10 12:06:47;;;;;;;5.60;2.10;;;10.80;94.30;;;;;;5117696;28;20226;-81
2022/04/10 12:09:15;;;;;;;7.13;2.05;;;10.70;94.40;;;;;;5117348;28;20202;-79
2022/04/10 12:11:43;;;;;;;9.93;2.22;;;10.60;95.60;;;;;;5105371;28;20235;-80
2022/04/10 12:14:24;;;;;;;5.82;1.70;;;10.30;99.90;;;;;;5117391;28;20668;-79
2022/04/10 12:16:52;;;;;;;4.60;1.73;;;10.10;99.90;;;;;;5116385;28;20202;-79
2022/04/10 12:19:31;;;;;;;10.77;3.15;;;9.80;99.90;;;;;;5100602;28;20198;-80
2022/04/10 12:21:58;;;;;;;3.65;2.08;;;9.40;99.90;;;;;;5110242;28;20212;-80
2022/04/10 12:24:25;;;;;;;7.20;1.98;;;9.00;99.90;;;;;;5110763;28;20240;-80
2022/04/10 12:26:52;;;;;;;5.70;1.73;;;9.00;99.90;;;;;;5109891;28;20264;-80
2022/04/10 12:29:20;;;;;;;5.25;1.80;;;9.30;99.90;;;;;;5100804;28;20281;-82
2022/04/10 12:31:50;;;;;;;4.95;1.73;;;9.50;99.90;;;;;;5100232;28;20274;-80
2022/04/10 12:34:17;;;;;;;4.50;1.55;;;9.70;99.90;;;;;;5108149;28;20639;-81
2022/04/10 12:36:48;;;;;;;3.53;1.42;;;9.70;99.90;;;;;;5117737;28;20237;-79
2022/04/10 12:39:25;;;;;;;6.88;2.30;;;9.70;99.90;;;;;;5125448;28;20201;-80
2022/04/10 12:42:00;;;;;;;9.88;2.60;;;9.80;99.90;;;;;;5110140;28;20203;-80
2022/04/10 12:44:27;;;;;;;4.57;2.20;;;9.90;99.90;;;;;;5106364;28;20230;-81
2022/04/10 12:46:56;;;;;;;4.15;2.00;;;10.20;99.90;;;;;;5098613;28;20198;-80
2022/04/10 12:49:26;;;;;;;4.60;2.25;;;10.20;99.90;;;;;;5097349;28;20227;-79
2022/04/10 12:51:55;;;;;;;3.67;2.00;;;10.30;99.90;;;;;;5104526;28;20266;-78
2022/04/10 12:54:36;;;;;;;7.53;3.05;;;10.50;99.90;;;;;;5114799;28;20260;-77
2022/04/10 12:57:04;;;;;;;10.98;3.40;;;10.60;99.90;;;;;;5113295;28;20234;-80
2022/04/10 12:59:40;;;;;;;8.50;2.50;;;10.70;99.90;;;;;;5105053;28;20282;-80
2022/04/10 13:02:22;;;;;;;8.38;2.67;;;10.60;99.80;;;;;;5103964;28;20212;-78
2022/04/10 13:05:00;;;;;;;3.58;1.90;;;10.80;99.90;;;;;;5101363;28;20205;-79
2022/04/10 13:07:28;;;;;;;7.47;3.15;;;10.80;95.80;;;;;;5100763;28;20194;-79